GBSPZ EGBJ-EGHF
Flight info
| Callsign | GBSPZ |
|---|---|
| Flight time | 0h 37m |
| Altitude | 3000 |
| Route | CPT Y321 PEPIS Q41 SAM |
| Aircraft | C172/L-SFG/C |
Departure
| Time | 2026-05-05 16:28 |
|---|---|
| Airport | Gloucestershire Airport (EGBJ) |
Arrival
| Time | 2026-05-05 17:05 |
|---|---|
| Airport | Solent Airport (EGHF) |
| Time | Latitude | Longitude | Altitude | Speed | Heading |
|---|---|---|---|---|---|
| 2026-05-05 16:21 | 51.88985 | -2.16366 | 68 ft | 0 kts | 279° |
| 2026-05-05 16:23 | 51.88943 | -2.16493 | 96 ft | 12 kts | 202° |
| 2026-05-05 16:24 | 51.88869 | -2.16598 | 97 ft | 17 kts | 250° |
| 2026-05-05 16:24 | 51.88858 | -2.16718 | 98 ft | 0 kts | 263° |
| 2026-05-05 16:27 | 51.88860 | -2.16754 | 98 ft | 9 kts | 285° |
| 2026-05-05 16:27 | 51.88876 | -2.16798 | 97 ft | 1 kts | 27° |
| 2026-05-05 16:27 | 51.88961 | -2.16704 | 96 ft | 37 kts | 36° |
| 2026-05-05 16:27 | 51.89251 | -2.16354 | 151 ft | 61 kts | 33° |
| 2026-05-05 16:28 | 51.89623 | -2.15972 | 319 ft | 65 kts | 20° |
| 2026-05-05 16:28 | 51.89999 | -2.15450 | 531 ft | 74 kts | 31° |
| 2026-05-05 16:28 | 51.90397 | -2.15034 | 809 ft | 69 kts | 26° |
| 2026-05-05 16:28 | 51.90773 | -2.14608 | 1088 ft | 63 kts | 28° |
| 2026-05-05 16:29 | 51.91080 | -2.14091 | 1350 ft | 74 kts | 69° |
| 2026-05-05 16:29 | 51.90707 | -2.13464 | 1562 ft | 93 kts | 176° |
| 2026-05-05 16:29 | 51.90033 | -2.13325 | 1640 ft | 112 kts | 172° |
| 2026-05-05 16:29 | 51.89180 | -2.13182 | 1635 ft | 132 kts | 172° |
| 2026-05-05 16:30 | 51.88560 | -2.13058 | 1635 ft | 138 kts | 172° |
| 2026-05-05 16:30 | 51.87596 | -2.12859 | 1624 ft | 141 kts | 172° |
| 2026-05-05 16:30 | 51.86631 | -2.12656 | 1732 ft | 136 kts | 172° |
| 2026-05-05 16:30 | 51.85761 | -2.12543 | 2079 ft | 116 kts | 194° |
| 2026-05-05 16:31 | 51.85005 | -2.12867 | 2323 ft | 112 kts | 188° |
| 2026-05-05 16:31 | 51.84290 | -2.12537 | 2564 ft | 108 kts | 147° |
| 2026-05-05 16:31 | 51.83607 | -2.11990 | 2765 ft | 111 kts | 146° |
| 2026-05-05 16:31 | 51.82924 | -2.11386 | 2928 ft | 111 kts | 146° |
| 2026-05-05 16:32 | 51.82248 | -2.10784 | 3136 ft | 110 kts | 147° |
| 2026-05-05 16:32 | 51.81586 | -2.10187 | 3354 ft | 109 kts | 147° |
| 2026-05-05 16:32 | 51.80925 | -2.09586 | 3509 ft | 109 kts | 147° |
| 2026-05-05 16:32 | 51.80261 | -2.08986 | 3669 ft | 109 kts | 147° |
| 2026-05-05 16:33 | 51.79589 | -2.08377 | 3844 ft | 111 kts | 148° |
| 2026-05-05 16:33 | 51.78919 | -2.07770 | 4036 ft | 110 kts | 148° |
| 2026-05-05 16:33 | 51.78242 | -2.07151 | 4205 ft | 114 kts | 147° |
| 2026-05-05 16:33 | 51.77563 | -2.06538 | 4408 ft | 113 kts | 148° |
| 2026-05-05 16:34 | 51.76889 | -2.05928 | 4628 ft | 110 kts | 148° |
| 2026-05-05 16:34 | 51.76219 | -2.05322 | 4794 ft | 111 kts | 147° |
| 2026-05-05 16:34 | 51.75526 | -2.04690 | 4916 ft | 116 kts | 148° |
| 2026-05-05 16:34 | 51.74826 | -2.04058 | 5093 ft | 115 kts | 149° |
| 2026-05-05 16:35 | 51.74139 | -2.03437 | 5288 ft | 112 kts | 148° |
| 2026-05-05 16:35 | 51.73452 | -2.02814 | 5417 ft | 116 kts | 148° |
| 2026-05-05 16:35 | 51.72776 | -2.02202 | 5664 ft | 109 kts | 148° |
| 2026-05-05 16:35 | 51.72117 | -2.01609 | 5848 ft | 105 kts | 149° |
| 2026-05-05 16:36 | 51.71483 | -2.01033 | 6016 ft | 105 kts | 150° |
| 2026-05-05 16:36 | 51.70842 | -2.00451 | 6174 ft | 109 kts | 149° |
| 2026-05-05 16:36 | 51.70169 | -1.99843 | 6286 ft | 113 kts | 150° |
| 2026-05-05 16:36 | 51.69498 | -1.99244 | 6480 ft | 108 kts | 149° |
| 2026-05-05 16:37 | 51.68832 | -1.98641 | 6603 ft | 110 kts | 150° |
| 2026-05-05 16:37 | 51.68174 | -1.98047 | 6760 ft | 107 kts | 149° |
| 2026-05-05 16:37 | 51.67524 | -1.97458 | 6898 ft | 107 kts | 150° |
| 2026-05-05 16:37 | 51.66875 | -1.96872 | 7017 ft | 108 kts | 150° |
| 2026-05-05 16:38 | 51.66209 | -1.96272 | 7093 ft | 113 kts | 149° |
| 2026-05-05 16:38 | 51.65529 | -1.95660 | 7225 ft | 110 kts | 148° |
| 2026-05-05 16:38 | 51.64839 | -1.95042 | 7289 ft | 114 kts | 149° |
| 2026-05-05 16:38 | 51.64151 | -1.94420 | 7426 ft | 111 kts | 150° |
| 2026-05-05 16:39 | 51.63478 | -1.93806 | 7526 ft | 113 kts | 149° |
| 2026-05-05 16:39 | 51.62807 | -1.93207 | 7643 ft | 113 kts | 148° |
| 2026-05-05 16:39 | 51.62112 | -1.92585 | 7752 ft | 113 kts | 146° |
| 2026-05-05 16:39 | 51.61407 | -1.91952 | 7810 ft | 117 kts | 147° |
| 2026-05-05 16:40 | 51.60700 | -1.91315 | 7921 ft | 116 kts | 147° |
| 2026-05-05 16:40 | 51.59995 | -1.90682 | 7996 ft | 117 kts | 149° |
| 2026-05-05 16:40 | 51.59261 | -1.90020 | 8000 ft | 124 kts | 147° |
| 2026-05-05 16:40 | 51.58499 | -1.89337 | 8002 ft | 126 kts | 149° |
| 2026-05-05 16:41 | 51.57728 | -1.88646 | 8001 ft | 128 kts | 149° |
| 2026-05-05 16:41 | 51.56945 | -1.87942 | 7999 ft | 130 kts | 148° |
| 2026-05-05 16:41 | 51.56149 | -1.87229 | 8015 ft | 132 kts | 148° |
| 2026-05-05 16:41 | 51.55350 | -1.86514 | 8015 ft | 131 kts | 149° |
| 2026-05-05 16:42 | 51.54564 | -1.85809 | 8013 ft | 129 kts | 149° |
| 2026-05-05 16:42 | 51.53777 | -1.85103 | 8007 ft | 130 kts | 148° |
| 2026-05-05 16:42 | 51.52991 | -1.84399 | 8010 ft | 129 kts | 149° |
| 2026-05-05 16:42 | 51.52205 | -1.83695 | 8010 ft | 129 kts | 149° |
| 2026-05-05 16:43 | 51.51418 | -1.82992 | 8009 ft | 129 kts | 149° |
| 2026-05-05 16:43 | 51.50635 | -1.82288 | 8002 ft | 129 kts | 147° |
| 2026-05-05 16:43 | 51.49845 | -1.81582 | 8002 ft | 130 kts | 149° |
| 2026-05-05 16:43 | 51.48964 | -1.81304 | 7991 ft | 133 kts | 187° |
| 2026-05-05 16:44 | 51.48046 | -1.81255 | 7992 ft | 133 kts | 164° |
| 2026-05-05 16:44 | 51.47252 | -1.80591 | 7988 ft | 132 kts | 143° |
| 2026-05-05 16:44 | 51.46720 | -1.79481 | 7999 ft | 125 kts | 110° |
| 2026-05-05 16:44 | 51.46159 | -1.78391 | 8001 ft | 131 kts | 142° |
| 2026-05-05 16:45 | 51.45381 | -1.77624 | 8007 ft | 132 kts | 144° |
| 2026-05-05 16:45 | 51.44577 | -1.76888 | 8006 ft | 133 kts | 149° |
| 2026-05-05 16:45 | 51.43767 | -1.76167 | 8005 ft | 133 kts | 147° |
| 2026-05-05 16:45 | 51.42961 | -1.75441 | 8008 ft | 133 kts | 149° |
| 2026-05-05 16:46 | 51.41353 | -1.74006 | 7999 ft | 131 kts | 149° |
| 2026-05-05 16:46 | 51.40542 | -1.73286 | 7998 ft | 131 kts | 148° |
| 2026-05-05 16:46 | 51.39746 | -1.72576 | 7991 ft | 131 kts | 148° |
| 2026-05-05 16:47 | 51.38968 | -1.71883 | 7981 ft | 129 kts | 147° |
| 2026-05-05 16:47 | 51.38182 | -1.71183 | 7988 ft | 129 kts | 149° |
| 2026-05-05 16:47 | 51.37400 | -1.70488 | 7987 ft | 129 kts | 149° |
| 2026-05-05 16:47 | 51.36617 | -1.69792 | 7987 ft | 129 kts | 149° |
| 2026-05-05 16:48 | 51.35834 | -1.69098 | 7984 ft | 129 kts | 149° |
| 2026-05-05 16:48 | 51.35047 | -1.68398 | 7981 ft | 131 kts | 148° |
| 2026-05-05 16:48 | 51.34254 | -1.67695 | 7982 ft | 130 kts | 149° |
| 2026-05-05 16:48 | 51.33466 | -1.66994 | 7978 ft | 130 kts | 147° |
| 2026-05-05 16:49 | 51.32671 | -1.66291 | 7973 ft | 131 kts | 148° |
| 2026-05-05 16:49 | 51.31870 | -1.65582 | 7971 ft | 132 kts | 149° |
| 2026-05-05 16:49 | 51.31067 | -1.64870 | 7968 ft | 132 kts | 149° |
| 2026-05-05 16:49 | 51.30264 | -1.64158 | 7965 ft | 132 kts | 148° |
| 2026-05-05 16:50 | 51.29452 | -1.63439 | 7962 ft | 134 kts | 148° |
| 2026-05-05 16:50 | 51.28640 | -1.62719 | 7970 ft | 134 kts | 148° |
| 2026-05-05 16:50 | 51.27813 | -1.61989 | 7973 ft | 137 kts | 148° |
| 2026-05-05 16:50 | 51.26977 | -1.61250 | 7974 ft | 138 kts | 148° |
| 2026-05-05 16:51 | 51.26138 | -1.60508 | 7972 ft | 139 kts | 147° |
| 2026-05-05 16:51 | 51.25290 | -1.59759 | 7970 ft | 140 kts | 148° |
| 2026-05-05 16:51 | 51.24437 | -1.59008 | 7977 ft | 139 kts | 149° |
| 2026-05-05 16:51 | 51.23593 | -1.58261 | 7971 ft | 138 kts | 149° |
| 2026-05-05 16:52 | 51.22756 | -1.57523 | 7969 ft | 138 kts | 148° |
| 2026-05-05 16:52 | 51.21918 | -1.56784 | 7968 ft | 138 kts | 147° |
| 2026-05-05 16:52 | 51.21082 | -1.56046 | 7971 ft | 136 kts | 149° |
| 2026-05-05 16:52 | 51.20254 | -1.55318 | 7970 ft | 136 kts | 148° |
| 2026-05-05 16:53 | 51.19422 | -1.54585 | 7973 ft | 136 kts | 149° |
| 2026-05-05 16:53 | 51.18610 | -1.53870 | 7970 ft | 134 kts | 149° |
| 2026-05-05 16:53 | 51.17795 | -1.53153 | 7969 ft | 134 kts | 149° |
| 2026-05-05 16:53 | 51.16983 | -1.52439 | 7967 ft | 133 kts | 149° |
| 2026-05-05 16:54 | 51.16173 | -1.51726 | 7964 ft | 133 kts | 149° |
| 2026-05-05 16:54 | 51.15357 | -1.51008 | 7964 ft | 134 kts | 149° |
| 2026-05-05 16:54 | 51.14539 | -1.50288 | 7965 ft | 136 kts | 147° |
| 2026-05-05 16:54 | 51.13707 | -1.49558 | 7969 ft | 136 kts | 148° |
| 2026-05-05 16:55 | 51.12875 | -1.48828 | 7971 ft | 136 kts | 149° |
| 2026-05-05 16:55 | 51.12049 | -1.48103 | 7967 ft | 135 kts | 149° |
| 2026-05-05 16:55 | 51.11229 | -1.47383 | 7964 ft | 135 kts | 148° |
| 2026-05-05 16:55 | 51.10401 | -1.46657 | 7961 ft | 136 kts | 148° |
| 2026-05-05 16:56 | 51.09568 | -1.45928 | 7961 ft | 137 kts | 148° |
| 2026-05-05 16:56 | 51.08734 | -1.45196 | 7967 ft | 137 kts | 148° |
| 2026-05-05 16:56 | 51.07896 | -1.44464 | 7972 ft | 137 kts | 149° |
| 2026-05-05 16:56 | 51.07065 | -1.43736 | 7969 ft | 137 kts | 149° |
| 2026-05-05 16:57 | 51.06218 | -1.42995 | 7903 ft | 143 kts | 148° |
| 2026-05-05 16:57 | 51.05339 | -1.42224 | 7781 ft | 143 kts | 149° |
| 2026-05-05 16:57 | 51.04466 | -1.41464 | 7664 ft | 143 kts | 149° |
| 2026-05-05 16:57 | 51.03595 | -1.40704 | 7536 ft | 144 kts | 148° |
| 2026-05-05 16:58 | 51.02718 | -1.39937 | 7412 ft | 145 kts | 148° |
| 2026-05-05 16:58 | 51.01834 | -1.39166 | 7286 ft | 144 kts | 149° |
| 2026-05-05 16:58 | 51.00952 | -1.38396 | 7069 ft | 146 kts | 149° |
| 2026-05-05 16:58 | 51.00059 | -1.37619 | 6825 ft | 147 kts | 149° |
| 2026-05-05 16:59 | 50.99158 | -1.36834 | 6579 ft | 149 kts | 147° |
| 2026-05-05 16:59 | 50.98249 | -1.36041 | 6336 ft | 149 kts | 148° |
| 2026-05-05 16:59 | 50.97344 | -1.35253 | 6076 ft | 148 kts | 148° |
| 2026-05-05 16:59 | 50.96462 | -1.34487 | 5996 ft | 138 kts | 148° |
| 2026-05-05 17:00 | 50.95618 | -1.33749 | 5750 ft | 145 kts | 147° |
| 2026-05-05 17:00 | 50.94716 | -1.32963 | 5450 ft | 150 kts | 147° |
| 2026-05-05 17:00 | 50.93792 | -1.32161 | 5148 ft | 152 kts | 146° |
| 2026-05-05 17:00 | 50.92858 | -1.31351 | 4847 ft | 154 kts | 147° |
| 2026-05-05 17:01 | 50.91916 | -1.30534 | 4540 ft | 154 kts | 147° |
| 2026-05-05 17:01 | 50.90983 | -1.29725 | 4225 ft | 152 kts | 147° |
| 2026-05-05 17:01 | 50.90055 | -1.28919 | 3915 ft | 152 kts | 147° |
| 2026-05-05 17:01 | 50.89129 | -1.28114 | 3609 ft | 152 kts | 147° |
| 2026-05-05 17:02 | 50.88201 | -1.27309 | 3305 ft | 152 kts | 146° |
| 2026-05-05 17:02 | 50.87274 | -1.26505 | 2995 ft | 151 kts | 147° |
| 2026-05-05 17:02 | 50.86356 | -1.25711 | 2693 ft | 150 kts | 147° |
| 2026-05-05 17:02 | 50.85443 | -1.24999 | 2376 ft | 144 kts | 162° |
| 2026-05-05 17:03 | 50.84470 | -1.24895 | 2135 ft | 137 kts | 177° |
| 2026-05-05 17:03 | 50.83555 | -1.25003 | 1856 ft | 128 kts | 186° |
| 2026-05-05 17:03 | 50.82686 | -1.25197 | 1569 ft | 126 kts | 186° |
| 2026-05-05 17:03 | 50.81834 | -1.25388 | 1272 ft | 121 kts | 187° |
| 2026-05-05 17:04 | 50.81016 | -1.25571 | 966 ft | 117 kts | 174° |
| 2026-05-05 17:04 | 50.80431 | -1.24949 | 699 ft | 98 kts | 99° |
| 2026-05-05 17:04 | 50.80339 | -1.23964 | 541 ft | 88 kts | 95° |
| 2026-05-05 17:04 | 50.80213 | -1.23076 | 424 ft | 72 kts | 88° |
| 2026-05-05 17:05 | 50.80423 | -1.22462 | 265 ft | 66 kts | 44° |
| 2026-05-05 17:05 | 50.80701 | -1.22003 | 174 ft | 55 kts | 41° |
| 2026-05-05 17:05 | 50.80981 | -1.21586 | 104 ft | 57 kts | 41° |
| 2026-05-05 17:05 | 50.81269 | -1.21135 | 32 ft | 48 kts | 41° |
| 2026-05-05 17:06 | 50.81434 | -1.20882 | 28 ft | 20 kts | 49° |
| 2026-05-05 17:06 | 50.81539 | -1.20719 | 29 ft | 25 kts | 45° |
| 2026-05-05 17:06 | 50.81672 | -1.20504 | 33 ft | 22 kts | 44° |
| 2026-05-05 17:06 | 50.81726 | -1.20510 | 34 ft | 8 kts | 314° |
| 2026-05-05 17:07 | 50.81764 | -1.20571 | 36 ft | 0 kts | 315° |
| 2026-05-05 17:07 | 50.81778 | -1.20594 | 37 ft | 11 kts | 315° |
| 2026-05-05 17:07 | 50.81851 | -1.20707 | 36 ft | 15 kts | 318° |
| 2026-05-05 17:07 | 50.81842 | -1.20844 | 37 ft | 17 kts | 217° |
| 2026-05-05 17:08 | 50.81819 | -1.20913 | 36 ft | 6 kts | 335° |
| 2026-05-05 17:08 | 50.81839 | -1.20926 | 36 ft | 0 kts | 343° |